Time;durP1;ratioP1;P1;durP2;ratioP2;P2;SDS_P1;SDS_P2;PMS_P1;PMS_P2;Temp;Humidity;BMP_temperature;BMP_pressure;BME280_temperature;BME280_humidity;BME280_pressure;Samples;Min_cycle;Max_cycle;Signal;HPM_P1;HPM_P2
2020/12/23 13:09:17;;;;;;;0.00;0.00;;;12.50;99.90;;;;;;5111310;27;20302;-66
2020/12/23 13:11:44;;;;;;;0.00;0.00;;;12.70;99.90;;;;;;5097795;28;20206;-66
2020/12/23 13:14:10;;;;;;;0.00;0.00;;;12.90;99.90;;;;;;5098853;28;20654;-67
2020/12/23 13:16:37;;;;;;;0.10;0.10;;;12.90;99.90;;;;;;5099036;28;20558;-66
2020/12/23 13:19:03;;;;;;;0.20;0.20;;;13.00;99.90;;;;;;5095399;28;20600;-67
2020/12/23 13:21:30;;;;;;;0.00;0.00;;;13.00;99.90;;;;;;5097894;28;20208;-67
2020/12/23 13:23:56;;;;;;;0.00;0.00;;;13.30;99.90;;;;;;5097327;28;20212;-64
2020/12/23 13:26:24;;;;;;;0.00;0.00;;;13.60;99.90;;;;;;5086602;28;20198;-67
2020/12/23 13:28:51;;;;;;;0.23;0.23;;;13.60;99.90;;;;;;5087892;28;20239;-66
2020/12/23 13:31:23;;;;;;;0.00;0.00;;;13.50;99.90;;;;;;5088137;28;20225;-66
2020/12/23 13:33:49;;;;;;;0.10;0.10;;;13.30;99.90;;;;;;5091001;28;20725;-66
2020/12/23 13:36:16;;;;;;;0.20;0.20;;;13.20;99.90;;;;;;5107461;28;20198;-71
2020/12/23 13:38:42;;;;;;;0.00;0.00;;;13.50;99.90;;;;;;5107854;28;20228;-68
2020/12/23 13:41:10;;;;;;;0.00;0.00;;;13.80;99.90;;;;;;5104805;28;20252;-74
2020/12/23 13:43:38;;;;;;;0.00;0.00;;;13.70;99.90;;;;;;5105548;28;20604;-67
2020/12/23 13:46:07;;;;;;;0.43;0.43;;;13.40;99.90;;;;;;5109732;28;20216;-66
2020/12/23 13:48:33;;;;;;;0.07;0.07;;;13.10;99.90;;;;;;5106709;28;20200;-66
2020/12/23 13:51:00;;;;;;;0.23;0.23;;;13.00;99.90;;;;;;5108460;28;20560;-65
2020/12/23 13:53:26;;;;;;;0.37;0.37;;;12.80;99.90;;;;;;5109556;28;20205;-66
2020/12/23 13:55:54;;;;;;;0.00;0.00;;;12.80;99.90;;;;;;5109156;28;20204;-64
2020/12/23 13:58:21;;;;;;;0.00;0.00;;;12.80;99.90;;;;;;5102230;28;20586;-66
2020/12/23 14:00:49;;;;;;;2.97;2.67;;;12.70;99.90;;;;;;5099668;28;20205;-64
2020/12/23 14:03:15;;;;;;;3.80;3.47;;;12.70;99.90;;;;;;5104797;28;20208;-65
2020/12/23 14:05:43;;;;;;;3.67;3.37;;;12.60;99.90;;;;;;5098399;28;20635;-67
2020/12/23 14:08:09;;;;;;;3.90;3.50;;;12.50;99.90;;;;;;5092461;28;21249;-64
2020/12/23 14:10:36;;;;;;;4.93;3.80;;;12.50;99.90;;;;;;5098215;28;20202;-65
2020/12/23 14:13:02;;;;;;;4.27;3.80;;;12.50;99.90;;;;;;5098013;28;20209;-62
2020/12/23 14:15:29;;;;;;;4.23;3.93;;;12.50;99.90;;;;;;5099008;28;20197;-62
2020/12/23 14:17:56;;;;;;;4.33;3.97;;;12.40;99.90;;;;;;5100634;28;20729;-65
2020/12/23 14:20:23;;;;;;;4.33;4.00;;;12.40;99.90;;;;;;5104967;28;20194;-72
2020/12/23 14:22:49;;;;;;;4.43;4.10;;;12.50;99.90;;;;;;5093432;28;20202;-68
2020/12/23 14:25:15;;;;;;;5.63;4.40;;;12.40;99.90;;;;;;5092092;28;20198;-65
2020/12/23 14:27:43;;;;;;;4.53;4.23;;;12.50;99.90;;;;;;5084377;28;20194;-64
2020/12/23 14:30:10;;;;;;;4.40;4.07;;;12.50;99.90;;;;;;5083192;28;20207;-65
2020/12/23 14:32:36;;;;;;;4.47;4.17;;;12.50;99.90;;;;;;5082642;28;20667;-64
2020/12/23 14:35:04;;;;;;;4.43;4.03;;;12.50;99.90;;;;;;5096090;28;20209;-66
2020/12/23 14:37:30;;;;;;;4.53;4.13;;;12.50;99.90;;;;;;5094069;28;20225;-65
2020/12/23 14:39:57;;;;;;;4.27;3.97;;;12.50;99.90;;;;;;5095252;28;20195;-66
2020/12/23 14:42:23;;;;;;;4.60;4.20;;;12.40;99.90;;;;;;5104692;28;20570;-65
2020/12/23 14:44:49;;;;;;;4.03;3.63;;;12.40;99.90;;;;;;5086989;28;20207;-65
2020/12/23 14:47:16;;;;;;;7.07;4.07;;;12.40;99.90;;;;;;5081626;28;20209;-64
2020/12/23 14:49:43;;;;;;;3.63;3.43;;;12.40;99.90;;;;;;5075337;28;20207;-65
2020/12/23 14:52:10;;;;;;;4.27;3.97;;;12.40;99.90;;;;;;5074698;28;20245;-64
2020/12/23 14:54:37;;;;;;;3.80;3.40;;;12.40;99.90;;;;;;5080025;28;20202;-64
2020/12/23 14:57:04;;;;;;;4.10;3.80;;;12.40;99.90;;;;;;5082490;28;20198;-64
2020/12/23 14:59:30;;;;;;;3.57;3.37;;;12.40;99.90;;;;;;5075763;28;20616;-65
2020/12/23 15:01:57;;;;;;;4.03;3.73;;;12.40;99.90;;;;;;5076543;28;20199;-65
2020/12/23 15:04:23;;;;;;;4.10;3.80;;;12.40;99.90;;;;;;5089235;28;20272;-64
2020/12/23 15:06:51;;;;;;;3.90;3.50;;;12.40;99.90;;;;;;5092258;28;20202;-65
2020/12/23 15:09:18;;;;;;;5.47;3.77;;;12.40;99.90;;;;;;5093150;28;20255;-62
2020/12/23 15:11:45;;;;;;;4.00;3.57;;;12.40;99.90;;;;;;5092684;28;20244;-64
2020/12/23 15:14:11;;;;;;;4.67;3.80;;;12.40;99.90;;;;;;5095474;28;20194;-83
2020/12/23 15:16:38;;;;;;;4.77;3.87;;;12.40;99.90;;;;;;5089946;28;20214;-63
2020/12/23 15:19:05;;;;;;;4.03;3.73;;;12.40;99.90;;;;;;5078747;28;20280;-64
2020/12/23 15:21:32;;;;;;;4.10;3.80;;;12.30;99.90;;;;;;5075754;28;20203;-65
2020/12/23 15:23:58;;;;;;;4.00;3.70;;;12.20;99.90;;;;;;5079677;28;20202;-65
2020/12/23 15:26:26;;;;;;;4.37;3.97;;;12.10;99.90;;;;;;5079625;28;20203;-79
2020/12/23 15:28:52;;;;;;;6.70;4.10;;;12.10;99.90;;;;;;5078258;28;20279;-65
2020/12/23 15:31:19;;;;;;;4.23;3.90;;;12.00;99.90;;;;;;5067696;28;20567;-66
2020/12/23 15:33:47;;;;;;;5.20;4.43;;;11.90;99.90;;;;;;5067735;28;20194;-65
2020/12/23 15:36:14;;;;;;;4.63;4.20;;;11.90;99.90;;;;;;5068276;28;20209;-66
2020/12/23 15:38:41;;;;;;;4.60;4.20;;;11.90;99.90;;;;;;5069918;28;20318;-63
2020/12/23 15:41:08;;;;;;;5.63;4.77;;;11.80;99.90;;;;;;5076795;28;20222;-64
2020/12/23 15:43:36;;;;;;;5.13;4.63;;;11.80;99.90;;;;;;5079636;28;20199;-62
2020/12/23 15:46:03;;;;;;;5.27;4.47;;;11.90;99.90;;;;;;5080284;28;20206;-66
2020/12/23 15:48:30;;;;;;;5.10;4.77;;;11.90;99.90;;;;;;5076151;28;20241;-64
2020/12/23 15:50:56;;;;;;;5.60;5.10;;;11.90;99.90;;;;;;5080831;28;20202;-66
2020/12/23 15:53:23;;;;;;;5.93;5.27;;;11.90;99.90;;;;;;5080821;28;20202;-69
2020/12/23 15:55:49;;;;;;;5.70;5.20;;;12.00;99.90;;;;;;5079952;28;20202;-66
2020/12/23 15:58:16;;;;;;;5.33;4.90;;;12.00;99.90;;;;;;5070382;28;20218;-67
2020/12/23 16:00:43;;;;;;;5.67;5.17;;;12.00;99.90;;;;;;5071145;28;20201;-66
2020/12/23 16:03:10;;;;;;;5.80;5.40;;;12.00;99.90;;;;;;5067826;28;20223;-70
2020/12/23 16:05:36;;;;;;;5.50;5.10;;;12.00;99.90;;;;;;5068800;28;20205;-68
2020/12/23 16:08:03;;;;;;;5.53;5.13;;;11.90;99.90;;;;;;5068422;28;20230;-69
2020/12/23 16:10:29;;;;;;;5.40;5.00;;;11.90;99.90;;;;;;5070796;28;20202;-67
2020/12/23 16:12:55;;;;;;;6.37;5.37;;;11.80;99.90;;;;;;5071651;28;20222;-67
2020/12/23 16:15:22;;;;;;;5.80;5.40;;;11.80;99.90;;;;;;5073718;28;20280;-70
2020/12/23 16:17:49;;;;;;;6.40;5.90;;;11.80;99.90;;;;;;5070000;28;20279;-70
2020/12/23 16:20:16;;;;;;;5.87;5.30;;;11.70;99.90;;;;;;5069752;28;22281;-65
2020/12/23 16:22:42;;;;;;;6.23;5.63;;;11.70;99.90;;;;;;5073315;28;20202;-63
2020/12/23 16:25:09;;;;;;;7.00;6.30;;;11.70;99.90;;;;;;5075236;28;20210;-63
2020/12/23 16:27:35;;;;;;;7.33;5.80;;;11.70;99.90;;;;;;5078781;28;20639;-66
2020/12/23 16:30:03;;;;;;;6.10;5.53;;;11.70;99.90;;;;;;5077055;28;20203;-63
2020/12/23 16:32:29;;;;;;;6.53;5.80;;;11.70;99.90;;;;;;5070120;28;20194;-63
2020/12/23 16:34:57;;;;;;;7.87;6.63;;;11.70;99.90;;;;;;5069884;28;20248;-63
2020/12/23 16:37:23;;;;;;;7.63;6.93;;;11.70;99.90;;;;;;5071769;28;20289;-66
2020/12/23 16:39:50;;;;;;;6.83;6.13;;;11.70;99.90;;;;;;5069785;28;20201;-68
2020/12/23 16:42:18;;;;;;;7.07;6.30;;;11.80;99.90;;;;;;5066759;28;20198;-73
2020/12/23 16:44:45;;;;;;;6.90;6.20;;;11.80;99.90;;;;;;5068831;28;20257;-66
2020/12/23 16:47:12;;;;;;;9.80;6.93;;;11.80;99.90;;;;;;5075903;28;20195;-62
2020/12/23 16:49:40;;;;;;;7.37;6.70;;;11.80;99.90;;;;;;5079055;28;20268;-63
2020/12/23 16:52:07;;;;;;;7.60;6.80;;;11.80;99.90;;;;;;5079345;28;20576;-66
2020/12/23 16:54:34;;;;;;;6.80;6.20;;;11.70;99.90;;;;;;5080080;28;20195;-63
2020/12/23 16:57:03;;;;;;;7.00;6.40;;;11.70;99.90;;;;;;5080567;28;20504;-65
2020/12/23 16:59:32;;;;;;;7.27;6.17;;;11.70;99.90;;;;;;5079372;28;20702;-66
2020/12/23 17:02:01;;;;;;;7.30;6.43;;;11.70;99.90;;;;;;5081334;28;20203;-63
2020/12/23 17:04:28;;;;;;;6.93;6.33;;;11.70;99.90;;;;;;5079089;28;20286;-65
2020/12/23 17:06:55;;;;;;;7.40;6.60;;;11.70;99.90;;;;;;5078251;28;20198;-67
2020/12/23 17:09:23;;;;;;;7.70;6.90;;;11.70;99.90;;;;;;5077001;28;20243;-66
2020/12/23 17:11:56;;;;;;;7.37;6.67;;;11.60;99.90;;;;;;5068928;28;20295;-65
2020/12/23 17:14:22;;;;;;;9.73;6.60;;;11.60;99.90;;;;;;5077184;28;20195;-65
2020/12/23 17:16:49;;;;;;;6.60;6.10;;;11.50;99.90;;;;;;5070300;28;20263;-67
2020/12/23 17:19:16;;;;;;;7.20;6.50;;;11.50;99.90;;;;;;5069456;28;20287;-64
2020/12/23 17:21:43;;;;;;;8.03;7.00;;;11.50;99.90;;;;;;5070647;28;20202;-65
2020/12/23 17:24:10;;;;;;;7.33;6.70;;;11.40;99.90;;;;;;5067352;28;22269;-66
2020/12/23 17:26:37;;;;;;;7.30;6.70;;;11.40;99.90;;;;;;5066458;28;20603;-69
2020/12/23 17:29:05;;;;;;;7.90;6.77;;;11.40;99.90;;;;;;5073213;28;20234;-68
2020/12/23 17:31:32;;;;;;;8.17;7.00;;;11.50;99.90;;;;;;5071550;28;20609;-67
2020/12/23 17:33:59;;;;;;;8.30;7.47;;;11.50;99.90;;;;;;5068303;28;20191;-66
2020/12/23 17:36:27;;;;;;;9.93;7.73;;;11.50;99.90;;;;;;5091402;28;20191;-67
2020/12/23 17:38:55;;;;;;;4.97;4.47;;;11.50;99.90;;;;;;5090952;28;20197;-67
2020/12/23 17:41:26;;;;;;;6.27;2.87;;;11.50;99.90;;;;;;5089588;28;20199;-67
2020/12/23 17:43:53;;;;;;;4.67;2.17;;;11.40;99.90;;;;;;5089191;28;20206;-66
2020/12/23 17:46:22;;;;;;;55.80;49.47;;;11.30;99.90;;;;;;5081815;28;20203;-66
2020/12/23 17:48:48;;;;;;;6.80;4.13;;;11.10;99.90;;;;;;5094966;28;20267;-66
2020/12/23 17:51:15;;;;;;;3.37;1.53;;;11.10;99.90;;;;;;5095512;28;20247;-67
2020/12/23 17:53:41;;;;;;;3.37;1.53;;;11.00;99.90;;;;;;5100287;28;20714;-67
2020/12/23 17:56:11;;;;;;;5.73;4.77;;;10.90;99.90;;;;;;5103222;28;20209;-65
2020/12/23 17:58:39;;;;;;;3.67;2.23;;;10.80;99.90;;;;;;5092798;28;20209;-66
2020/12/23 18:01:07;;;;;;;5.13;1.73;;;10.70;99.90;;;;;;5094500;28;20264;-67
2020/12/23 18:03:34;;;;;;;5.87;2.00;;;10.70;99.90;;;;;;5086999;28;20209;-68
2020/12/23 18:06:02;;;;;;;4.80;1.80;;;10.70;99.90;;;;;;5089994;28;20212;-69
2020/12/23 18:08:28;;;;;;;6.07;1.63;;;10.70;99.90;;;;;;5087302;28;20320;-70
2020/12/23 18:10:55;;;;;;;4.13;2.10;;;10.60;99.90;;;;;;5089371;28;20294;-67
2020/12/23 18:13:22;;;;;;;6.60;2.17;;;10.70;99.90;;;;;;5091662;28;20202;-70
2020/12/23 18:15:48;;;;;;;6.73;2.00;;;10.60;99.90;;;;;;5095118;28;20209;-69
2020/12/23 18:18:16;;;;;;;8.03;2.60;;;10.60;99.90;;;;;;5093722;28;20198;-69
2020/12/23 18:20:42;;;;;;;4.40;3.00;;;10.60;99.90;;;;;;5095075;28;20271;-69
2020/12/23 18:23:09;;;;;;;6.07;2.97;;;10.60;99.90;;;;;;5093049;28;20202;-68
2020/12/23 18:25:40;;;;;;;6.10;2.57;;;10.50;99.90;;;;;;5095051;28;20194;-69
2020/12/23 18:28:07;;;;;;;6.90;3.03;;;10.50;99.90;;;;;;5084259;28;20222;-73
2020/12/23 18:30:35;;;;;;;5.63;2.70;;;10.60;99.90;;;;;;5082391;28;20194;-71
2020/12/23 18:33:02;;;;;;;4.87;3.77;;;10.60;99.90;;;;;;5080924;28;20570;-70
2020/12/23 18:35:30;;;;;;;5.70;3.83;;;10.60;99.90;;;;;;5080325;28;20195;-70
2020/12/23 18:37:56;;;;;;;9.87;4.50;;;10.60;99.90;;;;;;5081241;28;20206;-69
2020/12/23 18:40:23;;;;;;;8.73;3.77;;;10.60;99.90;;;;;;5081692;28;20620;-67
2020/12/23 18:42:50;;;;;;;10.97;6.23;;;10.60;99.90;;;;;;5081772;28;20194;-66
2020/12/23 18:45:17;;;;;;;13.37;8.03;;;10.60;99.90;;;;;;5081800;28;20199;-66
2020/12/23 18:47:47;;;;;;;11.13;9.17;;;10.60;99.90;;;;;;5080982;28;22405;-66
2020/12/23 18:50:14;;;;;;;10.20;7.90;;;10.60;99.90;;;;;;5082385;28;20190;-67
2020/12/23 18:52:46;;;;;;;11.33;8.93;;;10.60;99.90;;;;;;5080100;28;20276;-66
2020/12/23 18:55:14;;;;;;;13.80;10.73;;;10.60;99.90;;;;;;5085421;28;20195;-69
2020/12/23 18:57:40;;;;;;;11.80;6.87;;;10.60;99.90;;;;;;5085306;28;20658;-66
2020/12/23 19:00:07;;;;;;;8.17;4.53;;;10.60;99.90;;;;;;5091218;28;20319;-70
2020/12/23 19:02:34;;;;;;;6.70;4.30;;;10.60;99.90;;;;;;5077595;28;20195;-66
2020/12/23 19:05:00;;;;;;;9.27;4.37;;;10.60;99.90;;;;;;5091375;28;20714;-65
2020/12/23 19:07:27;;;;;;;7.10;4.10;;;10.60;99.90;;;;;;5105756;28;20238;-69
2020/12/23 19:09:54;;;;;;;7.27;4.27;;;10.60;99.90;;;;;;5098493;28;20201;-64
2020/12/23 19:12:20;;;;;;;8.30;4.10;;;10.60;99.90;;;;;;5092973;28;20198;-65
2020/12/23 19:14:47;;;;;;;6.33;4.00;;;10.50;99.90;;;;;;5078505;28;20202;-64
2020/12/23 19:17:15;;;;;;;8.40;4.73;;;10.50;99.90;;;;;;5083167;28;20206;-68
2020/12/23 19:19:42;;;;;;;7.27;3.97;;;10.50;99.90;;;;;;5080497;28;20195;-69
2020/12/23 19:22:11;;;;;;;5.93;3.83;;;10.50;99.90;;;;;;5085493;28;20247;-68
2020/12/23 19:24:38;;;;;;;6.87;4.20;;;10.40;99.90;;;;;;5092996;28;20191;-66
2020/12/23 19:27:07;;;;;;;7.67;3.90;;;10.40;99.90;;;;;;5093774;28;20194;-66
2020/12/23 19:29:34;;;;;;;4.63;3.73;;;10.40;99.90;;;;;;5093051;28;20763;-64
2020/12/23 19:32:01;;;;;;;7.17;4.10;;;10.40;99.90;;;;;;5092758;28;20648;-65
2020/12/23 19:34:27;;;;;;;4.63;3.93;;;10.40;99.90;;;;;;5093039;28;20248;-66
2020/12/23 19:36:55;;;;;;;8.07;4.07;;;10.40;99.90;;;;;;5092796;28;20194;-66
2020/12/23 19:39:22;;;;;;;6.00;3.83;;;10.30;99.90;;;;;;5091979;28;20218;-65
2020/12/23 19:41:48;;;;;;;6.87;4.17;;;10.30;99.90;;;;;;5093493;28;20203;-65
2020/12/23 19:44:16;;;;;;;6.53;4.27;;;10.10;99.90;;;;;;5092507;28;20202;-66
2020/12/23 19:46:46;;;;;;;6.53;4.23;;;10.10;99.90;;;;;;5092898;28;20197;-66
2020/12/23 19:49:12;;;;;;;9.30;4.80;;;10.20;99.90;;;;;;5091444;28;20229;-65
2020/12/23 19:51:39;;;;;;;10.67;4.57;;;10.30;99.90;;;;;;5090034;28;20214;-67
2020/12/23 19:54:05;;;;;;;10.27;6.07;;;10.30;99.90;;;;;;5090910;28;20193;-71
2020/12/23 19:56:33;;;;;;;12.87;10.90;;;10.30;99.90;;;;;;5081796;28;20190;-69
2020/12/23 19:59:00;;;;;;;8.20;6.27;;;10.40;99.90;;;;;;5089087;28;20654;-66
2020/12/23 20:01:27;;;;;;;7.47;5.63;;;10.40;99.90;;;;;;5093468;28;20205;-65
2020/12/23 20:03:54;;;;;;;9.97;4.83;;;10.50;99.90;;;;;;5090903;28;20198;-67
2020/12/23 20:06:23;;;;;;;10.07;4.30;;;10.50;99.90;;;;;;5091952;28;20194;-66
2020/12/23 20:08:49;;;;;;;9.30;4.13;;;10.50;99.90;;;;;;5091942;28;20771;-67
2020/12/23 20:11:16;;;;;;;7.07;4.53;;;10.50;99.90;;;;;;5092248;28;20685;-67
2020/12/23 20:13:42;;;;;;;9.40;3.80;;;10.40;99.90;;;;;;5092128;28;20213;-67
2020/12/23 20:16:11;;;;;;;5.57;4.10;;;10.40;99.90;;;;;;5088463;28;20276;-67
2020/12/23 20:18:39;;;;;;;4.87;3.63;;;10.40;99.90;;;;;;5078219;28;20242;-68
2020/12/23 20:21:06;;;;;;;5.73;3.80;;;10.40;99.90;;;;;;5080534;28;20209;-69
2020/12/23 20:23:33;;;;;;;6.07;4.67;;;10.30;99.90;;;;;;5081790;28;20555;-68
2020/12/23 20:25:59;;;;;;;11.33;4.93;;;10.30;99.90;;;;;;5080840;28;20198;-66
2020/12/23 20:28:26;;;;;;;8.50;4.80;;;10.20;99.90;;;;;;5076997;28;20226;-67
2020/12/23 20:30:53;;;;;;;6.17;5.00;;;10.20;99.90;;;;;;5086570;28;20191;-66
2020/12/23 20:33:19;;;;;;;6.87;4.90;;;10.20;99.90;;;;;;5081001;28;20278;-66
2020/12/23 20:35:47;;;;;;;5.67;4.63;;;10.20;99.90;;;;;;5073614;28;22156;-67
2020/12/23 20:38:14;;;;;;;5.17;4.37;;;10.10;99.90;;;;;;5069427;28;20226;-67
2020/12/23 20:40:41;;;;;;;9.80;4.80;;;10.10;99.90;;;;;;5066586;28;20195;-66
2020/12/23 20:43:08;;;;;;;6.60;4.73;;;10.10;99.90;;;;;;5069050;28;20286;-67
2020/12/23 20:45:35;;;;;;;7.07;3.60;;;10.10;99.90;;;;;;5071266;28;20730;-66
2020/12/23 20:48:01;;;;;;;8.90;3.60;;;10.10;99.90;;;;;;5068222;28;20222;-69
2020/12/23 20:50:28;;;;;;;9.00;2.80;;;9.90;99.90;;;;;;5071225;28;20202;-68
2020/12/23 20:52:55;;;;;;;7.30;2.93;;;9.70;99.90;;;;;;5072453;28;20198;-67
2020/12/23 20:55:22;;;;;;;13.87;4.30;;;9.40;99.90;;;;;;5066814;28;20207;-68
2020/12/23 20:57:48;;;;;;;10.60;2.93;;;9.20;99.90;;;;;;5068077;28;20218;-68
2020/12/23 21:00:15;;;;;;;9.30;2.97;;;9.10;99.90;;;;;;5069534;28;20205;-68
2020/12/23 21:02:41;;;;;;;13.17;3.43;;;9.10;99.90;;;;;;5070212;28;20213;-69
2020/12/23 21:05:08;;;;;;;8.50;2.73;;;9.10;99.90;;;;;;5070086;28;20198;-67
2020/12/23 21:07:35;;;;;;;9.83;2.97;;;8.90;99.90;;;;;;5071276;28;20279;-71
2020/12/23 21:10:03;;;;;;;4.00;2.57;;;8.80;99.90;;;;;;5067644;28;20204;-66
2020/12/23 21:12:29;;;;;;;6.70;2.23;;;8.80;99.90;;;;;;5070414;28;20670;-70
2020/12/23 21:14:56;;;;;;;5.30;2.27;;;8.90;99.90;;;;;;5068094;28;20251;-70
2020/12/23 21:17:26;;;;;;;12.33;2.83;;;8.90;99.90;;;;;;5073742;28;20195;-71
2020/12/23 21:19:52;;;;;;;4.87;2.13;;;8.90;99.90;;;;;;5069391;28;20198;-71
2020/12/23 21:22:19;;;;;;;5.47;2.30;;;8.90;99.90;;;;;;5065146;28;20241;-70
2020/12/23 21:24:46;;;;;;;4.90;2.70;;;9.00;99.90;;;;;;5069804;28;20206;-66
2020/12/23 21:27:14;;;;;;;5.67;2.40;;;9.00;99.90;;;;;;5067543;28;20206;-71
2020/12/23 21:29:40;;;;;;;4.50;2.37;;;9.00;99.90;;;;;;5071630;28;20218;-67
2020/12/23 21:32:07;;;;;;;8.27;2.40;;;9.00;99.90;;;;;;5073795;28;20268;-68
2020/12/23 21:34:33;;;;;;;6.33;2.30;;;9.00;99.90;;;;;;5072905;28;20210;-68
2020/12/23 21:37:00;;;;;;;7.73;2.33;;;9.00;99.90;;;;;;5076797;28;20198;-69
2020/12/23 21:39:26;;;;;;;8.60;2.30;;;8.90;99.90;;;;;;5073939;28;20676;-67
2020/12/23 21:41:55;;;;;;;6.50;2.57;;;8.90;99.90;;;;;;5083707;28;20788;-67
2020/12/23 21:44:23;;;;;;;6.50;2.40;;;8.80;99.90;;;;;;5084264;28;20235;-67
2020/12/23 21:46:57;;;;;;;6.20;2.33;;;8.80;99.90;;;;;;5087315;28;20667;-68
2020/12/23 21:49:23;;;;;;;4.23;2.40;;;8.80;99.90;;;;;;5083027;28;20214;-71
2020/12/23 21:51:50;;;;;;;4.30;2.37;;;8.70;99.90;;;;;;5085911;28;20194;-65
2020/12/23 21:54:16;;;;;;;7.30;2.27;;;8.70;99.90;;;;;;5083592;28;20226;-68
2020/12/23 21:56:43;;;;;;;5.23;2.40;;;8.70;99.90;;;;;;5083342;28;20205;-67
2020/12/23 21:59:10;;;;;;;6.00;2.27;;;8.70;99.90;;;;;;5083677;28;20202;-70
2020/12/23 22:01:40;;;;;;;3.13;1.93;;;8.80;99.90;;;;;;5085345;28;20259;-70
2020/12/23 22:04:07;;;;;;;6.27;2.07;;;8.70;99.90;;;;;;5083497;28;20202;-68
2020/12/23 22:06:35;;;;;;;10.57;1.87;;;8.70;99.90;;;;;;5083552;28;20297;-68
2020/12/23 22:09:02;;;;;;;4.37;1.70;;;8.70;99.90;;;;;;5087925;28;20272;-67
2020/12/23 22:11:30;;;;;;;4.83;1.80;;;8.60;99.90;;;;;;5083209;28;20576;-68
2020/12/23 22:13:57;;;;;;;6.23;2.30;;;8.60;99.90;;;;;;5084956;28;21693;-65
2020/12/23 22:16:24;;;;;;;2.43;1.67;;;8.60;99.90;;;;;;5086732;28;20195;-67
2020/12/23 22:18:51;;;;;;;5.30;1.60;;;8.60;99.90;;;;;;5081230;28;20203;-69
2020/12/23 22:21:19;;;;;;;4.10;1.70;;;8.60;99.90;;;;;;5082774;28;20279;-67
2020/12/23 22:23:46;;;;;;;6.53;2.17;;;8.60;99.90;;;;;;5084964;28;20197;-65
2020/12/23 22:26:13;;;;;;;3.03;1.87;;;8.60;99.90;;;;;;5083161;28;20194;-66
2020/12/23 22:28:57;;;;;;;5.00;1.97;;;8.60;99.90;;;;;;5086208;28;20232;-67
2020/12/23 22:31:26;;;;;;;6.63;2.23;;;8.60;99.90;;;;;;5085546;28;20321;-67
2020/12/23 22:33:55;;;;;;;3.87;1.60;;;8.60;99.90;;;;;;5082833;28;20197;-66
2020/12/23 22:36:22;;;;;;;4.33;1.60;;;8.60;99.90;;;;;;5082844;28;20604;-66
2020/12/23 22:38:49;;;;;;;8.47;2.03;;;8.50;99.90;;;;;;5078764;28;20249;-66
2020/12/23 22:41:16;;;;;;;3.87;1.80;;;8.50;99.90;;;;;;5072130;28;20202;-67
2020/12/23 22:43:43;;;;;;;3.00;1.50;;;8.50;99.90;;;;;;5072425;28;20199;-66
2020/12/23 22:46:11;;;;;;;7.77;1.43;;;8.50;99.90;;;;;;5075696;28;20215;-66
2020/12/23 22:48:38;;;;;;;3.93;1.23;;;8.50;99.90;;;;;;5069983;28;20270;-64
2020/12/23 22:51:05;;;;;;;4.13;1.63;;;8.40;99.90;;;;;;5069858;28;20675;-66
2020/12/23 22:53:32;;;;;;;2.70;1.50;;;8.40;99.90;;;;;;5071445;28;20190;-66
2020/12/23 22:55:58;;;;;;;4.33;1.47;;;8.40;99.90;;;;;;5072483;28;21809;-70
2020/12/23 22:58:25;;;;;;;3.77;1.40;;;8.40;99.90;;;;;;5070534;28;20285;-65
2020/12/23 23:00:52;;;;;;;4.27;1.50;;;8.40;99.90;;;;;;5072552;28;20203;-67
2020/12/23 23:03:20;;;;;;;2.33;1.20;;;8.30;99.90;;;;;;5070722;28;20191;-64
2020/12/23 23:05:47;;;;;;;10.13;1.77;;;8.30;99.90;;;;;;5072439;28;20226;-63
2020/12/23 23:08:15;;;;;;;3.63;1.00;;;8.30;99.90;;;;;;5067826;28;20754;-65
2020/12/23 23:10:41;;;;;;;5.03;1.30;;;8.30;99.90;;;;;;5074810;28;20260;-65
2020/12/23 23:13:08;;;;;;;2.63;1.60;;;8.30;99.90;;;;;;5073992;28;20670;-65
2020/12/23 23:15:34;;;;;;;7.23;1.30;;;8.30;99.90;;;;;;5070494;28;20191;-64
2020/12/23 23:18:01;;;;;;;3.93;1.23;;;8.30;99.90;;;;;;5075300;28;20203;-63
2020/12/23 23:20:27;;;;;;;7.23;1.47;;;8.30;99.90;;;;;;5070414;28;20668;-66
2020/12/23 23:22:54;;;;;;;3.03;1.30;;;8.40;99.90;;;;;;5070054;28;20218;-65
2020/12/23 23:25:21;;;;;;;7.73;1.63;;;8.40;99.90;;;;;;5069491;28;20242;-65
2020/12/23 23:27:49;;;;;;;5.27;1.70;;;8.40;99.90;;;;;;5072241;28;20672;-66
2020/12/23 23:30:18;;;;;;;6.07;1.60;;;8.50;99.90;;;;;;5071074;28;20199;-65
2020/12/23 23:32:47;;;;;;;8.47;2.20;;;8.50;99.90;;;;;;5077664;28;20201;-67
2020/12/23 23:35:19;;;;;;;4.40;1.30;;;8.50;99.90;;;;;;5081626;28;20228;-67
2020/12/23 23:37:45;;;;;;;6.80;1.47;;;8.40;99.90;;;;;;5084295;28;20190;-67
2020/12/23 23:40:18;;;;;;;3.90;1.30;;;8.40;99.90;;;;;;5080092;28;20194;-66
2020/12/23 23:42:46;;;;;;;6.87;1.90;;;8.40;99.90;;;;;;5086032;28;20202;-66
2020/12/23 23:45:19;;;;;;;4.90;1.50;;;8.40;99.90;;;;;;5080663;28;20206;-67
2020/12/23 23:47:51;;;;;;;2.90;1.33;;;8.30;99.90;;;;;;5084919;28;20214;-69
2020/12/23 23:50:32;;;;;;;3.20;1.20;;;8.30;99.90;;;;;;5090879;28;20687;-65
2020/12/23 23:53:22;;;;;;;5.23;1.13;;;8.20;99.90;;;;;;5090494;28;20973;-69
2020/12/23 23:56:26;;;;;;;0.87;0.67;;;8.20;99.90;;;;;;5060781;28;21129;-65
2020/12/23 23:59:24;;;;;;;4.00;0.90;;;8.00;99.90;;;;;;4998168;28;20235;-69
